sensor_id;sensor_type;location;lat;lon;timestamp;pressure;altitude;pressure_sealevel;temperature;humidity
68179;BME280;54998;42.656;23.382;2022-12-29T00:01:46;95808.13;;;3.11;76.98
68179;BME280;54998;42.656;23.382;2022-12-29T00:04:13;95802.78;;;3.17;76.29
68179;BME280;54998;42.656;23.382;2022-12-29T00:06:39;95793.03;;;3.07;75.40
68179;BME280;54998;42.656;23.382;2022-12-29T00:09:04;95795.31;;;3.14;74.89
68179;BME280;54998;42.656;23.382;2022-12-29T00:11:30;95798.13;;;3.07;75.05
68179;BME280;54998;42.656;23.382;2022-12-29T00:13:55;95803.94;;;3.09;74.73
68179;BME280;54998;42.656;23.382;2022-12-29T00:16:44;95801.50;;;3.08;74.64
68179;BME280;54998;42.656;23.382;2022-12-29T00:19:10;95798.16;;;2.88;75.18
68179;BME280;54998;42.656;23.382;2022-12-29T00:21:56;95802.81;;;2.98;75.03
68179;BME280;54998;42.656;23.382;2022-12-29T00:24:41;95813.28;;;2.90;74.79
68179;BME280;54998;42.656;23.382;2022-12-29T00:27:26;95817.06;;;2.43;76.45
68179;BME280;54998;42.656;23.382;2022-12-29T00:30:20;95810.22;;;2.64;76.13
68179;BME280;54998;42.656;23.382;2022-12-29T00:33:28;95809.34;;;2.65;76.27
68179;BME280;54998;42.656;23.382;2022-12-29T00:38:51;95809.88;;;2.53;76.50
68179;BME280;54998;42.656;23.382;2022-12-29T00:41:37;95808.09;;;2.55;76.61
68179;BME280;54998;42.656;23.382;2022-12-29T00:44:21;95818.66;;;2.46;76.57
68179;BME280;54998;42.656;23.382;2022-12-29T00:46:46;95815.69;;;2.55;76.96
68179;BME280;54998;42.656;23.382;2022-12-29T00:49:13;95820.66;;;2.58;76.56
68179;BME280;54998;42.656;23.382;2022-12-29T00:52:03;95816.44;;;2.57;76.57
68179;BME280;54998;42.656;23.382;2022-12-29T00:54:31;95817.41;;;2.55;76.65
68179;BME280;54998;42.656;23.382;2022-12-29T00:56:56;95822.06;;;2.64;76.76
68179;BME280;54998;42.656;23.382;2022-12-29T00:59:22;95815.63;;;2.57;76.63
68179;BME280;54998;42.656;23.382;2022-12-29T01:01:50;95826.13;;;2.68;76.41
68179;BME280;54998;42.656;23.382;2022-12-29T01:04:15;95822.22;;;2.61;76.78
68179;BME280;54998;42.656;23.382;2022-12-29T01:06:41;95822.44;;;2.56;76.75
68179;BME280;54998;42.656;23.382;2022-12-29T01:09:07;95818.78;;;2.62;76.89
68179;BME280;54998;42.656;23.382;2022-12-29T01:11:52;95818.16;;;2.57;76.67
68179;BME280;54998;42.656;23.382;2022-12-29T01:14:18;95811.94;;;2.64;76.48
68179;BME280;54998;42.656;23.382;2022-12-29T01:16:45;95809.59;;;2.59;76.67
68179;BME280;54998;42.656;23.382;2022-12-29T01:19:11;95814.69;;;2.59;76.53
68179;BME280;54998;42.656;23.382;2022-12-29T01:21:36;95808.09;;;2.55;76.50
68179;BME280;54998;42.656;23.382;2022-12-29T01:24:02;95806.72;;;2.48;76.96
68179;BME280;54998;42.656;23.382;2022-12-29T01:26:27;95798.78;;;2.37;77.17
68179;BME280;54998;42.656;23.382;2022-12-29T01:28:53;95806.28;;;2.38;77.69
68179;BME280;54998;42.656;23.382;2022-12-29T01:31:18;95806.13;;;2.43;77.64
68179;BME280;54998;42.656;23.382;2022-12-29T01:33:44;95804.41;;;2.43;77.90
68179;BME280;54998;42.656;23.382;2022-12-29T01:36:12;95798.53;;;2.43;77.77
68179;BME280;54998;42.656;23.382;2022-12-29T01:38:38;95797.22;;;2.34;77.76
68179;BME280;54998;42.656;23.382;2022-12-29T01:41:05;95791.84;;;2.21;78.53
68179;BME280;54998;42.656;23.382;2022-12-29T01:43:56;95797.44;;;2.09;79.42
68179;BME280;54998;42.656;23.382;2022-12-29T01:46:40;95793.84;;;2.15;79.21
68179;BME280;54998;42.656;23.382;2022-12-29T01:51:35;95794.19;;;2.26;78.68
68179;BME280;54998;42.656;23.382;2022-12-29T01:54:09;95785.75;;;2.25;78.50
68179;BME280;54998;42.656;23.382;2022-12-29T01:56:35;95772.94;;;2.10;78.74
68179;BME280;54998;42.656;23.382;2022-12-29T01:59:08;95782.03;;;2.14;78.87
68179;BME280;54998;42.656;23.382;2022-12-29T02:01:36;95778.06;;;2.08;78.93
68179;BME280;54998;42.656;23.382;2022-12-29T02:04:02;95786.50;;;2.09;78.61
68179;BME280;54998;42.656;23.382;2022-12-29T02:06:32;95776.13;;;1.94;78.97
68179;BME280;54998;42.656;23.382;2022-12-29T02:11:35;95768.28;;;2.00;79.12
68179;BME280;54998;42.656;23.382;2022-12-29T02:14:01;95778.06;;;2.08;78.78
68179;BME280;54998;42.656;23.382;2022-12-29T02:16:42;95776.16;;;2.13;78.49
68179;BME280;54998;42.656;23.382;2022-12-29T02:36:21;95767.28;;;2.23;78.25
68179;BME280;54998;42.656;23.382;2022-12-29T02:38:49;95768.25;;;2.40;77.71
68179;BME280;54998;42.656;23.382;2022-12-29T02:41:29;95762.97;;;2.44;77.93
68179;BME280;54998;42.656;23.382;2022-12-29T02:43:59;95757.97;;;2.43;77.49
68179;BME280;54998;42.656;23.382;2022-12-29T02:49:25;95767.53;;;2.36;77.98
68179;BME280;54998;42.656;23.382;2022-12-29T02:52:14;95760.91;;;2.53;77.14
68179;BME280;54998;42.656;23.382;2022-12-29T02:54:40;95761.19;;;2.65;77.20
68179;BME280;54998;42.656;23.382;2022-12-29T02:57:32;95761.41;;;2.61;76.53
68179;BME280;54998;42.656;23.382;2022-12-29T03:13:28;95756.06;;;2.48;78.62
68179;BME280;54998;42.656;23.382;2022-12-29T03:21:42;95752.22;;;2.58;77.95
68179;BME280;54998;42.656;23.382;2022-12-29T03:24:29;95759.06;;;2.56;78.16
68179;BME280;54998;42.656;23.382;2022-12-29T03:26:58;95750.44;;;2.60;77.90
68179;BME280;54998;42.656;23.382;2022-12-29T03:29:24;95750.78;;;2.72;77.30
68179;BME280;54998;42.656;23.382;2022-12-29T03:31:52;95751.91;;;2.64;76.72
68179;BME280;54998;42.656;23.382;2022-12-29T03:34:20;95747.28;;;2.55;76.30
68179;BME280;54998;42.656;23.382;2022-12-29T03:36:58;95745.38;;;2.41;77.20
68179;BME280;54998;42.656;23.382;2022-12-29T03:39:26;95755.34;;;2.25;77.36
68179;BME280;54998;42.656;23.382;2022-12-29T03:41:58;95750.84;;;2.13;77.71
68179;BME280;54998;42.656;23.382;2022-12-29T03:44:32;95762.13;;;2.06;78.40
68179;BME280;54998;42.656;23.382;2022-12-29T03:46:58;95759.31;;;1.93;78.71
68179;BME280;54998;42.656;23.382;2022-12-29T03:49:24;95761.78;;;1.74;79.58
68179;BME280;54998;42.656;23.382;2022-12-29T03:51:49;95763.09;;;1.62;79.92
68179;BME280;54998;42.656;23.382;2022-12-29T03:54:14;95771.31;;;1.47;80.61
68179;BME280;54998;42.656;23.382;2022-12-29T03:56:40;95765.50;;;1.45;80.72
68179;BME280;54998;42.656;23.382;2022-12-29T03:59:05;95771.56;;;1.41;80.98
68179;BME280;54998;42.656;23.382;2022-12-29T04:01:31;95767.53;;;1.37;81.21
68179;BME280;54998;42.656;23.382;2022-12-29T04:03:56;95773.03;;;1.26;81.36
68179;BME280;54998;42.656;23.382;2022-12-29T04:06:21;95781.72;;;1.19;81.99
68179;BME280;54998;42.656;23.382;2022-12-29T04:08:47;95775.25;;;1.12;81.94
68179;BME280;54998;42.656;23.382;2022-12-29T04:11:12;95774.69;;;1.05;82.24
68179;BME280;54998;42.656;23.382;2022-12-29T04:13:37;95769.75;;;1.02;81.99
68179;BME280;54998;42.656;23.382;2022-12-29T04:16:06;95776.91;;;0.91;82.39
68179;BME280;54998;42.656;23.382;2022-12-29T04:18:31;95773.97;;;0.79;83.09
68179;BME280;54998;42.656;23.382;2022-12-29T04:20:57;95766.34;;;0.81;82.93
68179;BME280;54998;42.656;23.382;2022-12-29T04:23:26;95770.72;;;0.76;82.91
68179;BME280;54998;42.656;23.382;2022-12-29T04:25:52;95768.91;;;0.79;82.95
68179;BME280;54998;42.656;23.382;2022-12-29T04:28:17;95774.75;;;0.81;83.00
68179;BME280;54998;42.656;23.382;2022-12-29T04:30:43;95777.41;;;0.78;82.96
68179;BME280;54998;42.656;23.382;2022-12-29T04:33:10;95776.84;;;0.70;83.23
68179;BME280;54998;42.656;23.382;2022-12-29T04:35:35;95775.16;;;0.71;83.37
68179;BME280;54998;42.656;23.382;2022-12-29T04:38:01;95777.91;;;0.65;83.24
68179;BME280;54998;42.656;23.382;2022-12-29T04:40:27;95785.31;;;0.69;83.09
68179;BME280;54998;42.656;23.382;2022-12-29T04:42:52;95792.88;;;0.69;83.18
68179;BME280;54998;42.656;23.382;2022-12-29T04:45:18;95792.88;;;0.69;83.16
68179;BME280;54998;42.656;23.382;2022-12-29T04:47:43;95797.16;;;0.67;83.10
68179;BME280;54998;42.656;23.382;2022-12-29T04:50:09;95799.69;;;0.67;83.37
68179;BME280;54998;42.656;23.382;2022-12-29T04:52:35;95803.84;;;0.70;83.44
68179;BME280;54998;42.656;23.382;2022-12-29T04:55:01;95797.94;;;0.69;83.27
68179;BME280;54998;42.656;23.382;2022-12-29T04:57:26;95800.41;;;0.71;83.28
68179;BME280;54998;42.656;23.382;2022-12-29T04:59:52;95801.91;;;0.76;83.63
68179;BME280;54998;42.656;23.382;2022-12-29T05:02:17;95799.25;;;0.79;83.19
68179;BME280;54998;42.656;23.382;2022-12-29T05:04:43;95806.81;;;0.79;83.11
68179;BME280;54998;42.656;23.382;2022-12-29T05:07:09;95810.88;;;0.84;83.37
68179;BME280;54998;42.656;23.382;2022-12-29T05:09:34;95809.59;;;0.95;83.33
68179;BME280;54998;42.656;23.382;2022-12-29T05:12:00;95804.72;;;0.91;83.04
68179;BME280;54998;42.656;23.382;2022-12-29T05:14:25;95795.84;;;1.02;83.16
68179;BME280;54998;42.656;23.382;2022-12-29T05:16:51;95802.19;;;1.13;82.84
68179;BME280;54998;42.656;23.382;2022-12-29T05:19:36;95796.50;;;1.08;82.92
68179;BME280;54998;42.656;23.382;2022-12-29T05:22:03;95798.41;;;1.23;82.83
68179;BME280;54998;42.656;23.382;2022-12-29T05:24:29;95801.72;;;1.25;83.19
68179;BME280;54998;42.656;23.382;2022-12-29T05:26:54;95802.53;;;1.48;83.36
68179;BME280;54998;42.656;23.382;2022-12-29T05:29:20;95796.00;;;1.42;83.10
68179;BME280;54998;42.656;23.382;2022-12-29T05:31:45;95801.56;;;1.71;83.12
68179;BME280;54998;42.656;23.382;2022-12-29T05:34:11;95806.94;;;1.83;82.66
68179;BME280;54998;42.656;23.382;2022-12-29T05:36:37;95805.03;;;1.89;82.21
68179;BME280;54998;42.656;23.382;2022-12-29T05:39:03;95806.19;;;2.02;81.90
68179;BME280;54998;42.656;23.382;2022-12-29T05:41:28;95802.75;;;2.03;81.78
68179;BME280;54998;42.656;23.382;2022-12-29T05:43:54;95801.44;;;2.15;81.25
68179;BME280;54998;42.656;23.382;2022-12-29T05:46:19;95811.22;;;2.22;81.08
68179;BME280;54998;42.656;23.382;2022-12-29T05:48:44;95804.16;;;2.29;80.68
68179;BME280;54998;42.656;23.382;2022-12-29T05:51:10;95811.19;;;2.43;79.52
68179;BME280;54998;42.656;23.382;2022-12-29T05:54:14;95812.56;;;2.50;79.49
68179;BME280;54998;42.656;23.382;2022-12-29T05:56:39;95823.50;;;2.51;79.41
68179;BME280;54998;42.656;23.382;2022-12-29T05:59:05;95821.59;;;2.56;79.34
68179;BME280;54998;42.656;23.382;2022-12-29T06:01:30;95824.66;;;2.43;79.27
68179;BME280;54998;42.656;23.382;2022-12-29T06:03:55;95815.09;;;2.50;79.04
68179;BME280;54998;42.656;23.382;2022-12-29T06:06:21;95816.44;;;2.57;78.67
68179;BME280;54998;42.656;23.382;2022-12-29T06:08:46;95830.91;;;2.55;78.33
68179;BME280;54998;42.656;23.382;2022-12-29T06:11:11;95827.41;;;2.58;77.89
68179;BME280;54998;42.656;23.382;2022-12-29T06:13:37;95829.66;;;2.64;78.06
68179;BME280;54998;42.656;23.382;2022-12-29T06:16:03;95830.03;;;2.56;78.12
68179;BME280;54998;42.656;23.382;2022-12-29T06:18:28;95827.22;;;2.62;77.57
68179;BME280;54998;42.656;23.382;2022-12-29T06:20:54;95827.97;;;2.83;77.21
68179;BME280;54998;42.656;23.382;2022-12-29T06:23:19;95818.41;;;3.07;77.43
68179;BME280;54998;42.656;23.382;2022-12-29T06:25:47;95828.28;;;3.50;75.72
68179;BME280;54998;42.656;23.382;2022-12-29T06:28:12;95819.38;;;4.11;73.83
68179;BME280;54998;42.656;23.382;2022-12-29T06:30:37;95819.59;;;4.40;72.53
68179;BME280;54998;42.656;23.382;2022-12-29T06:33:03;95820.94;;;4.47;71.10
68179;BME280;54998;42.656;23.382;2022-12-29T06:35:29;95821.75;;;4.47;71.38
68179;BME280;54998;42.656;23.382;2022-12-29T06:37:54;95824.09;;;5.15;69.70
68179;BME280;54998;42.656;23.382;2022-12-29T06:40:20;95822.50;;;5.29;67.97
68179;BME280;54998;42.656;23.382;2022-12-29T06:42:46;95834.25;;;6.08;66.79
68179;BME280;54998;42.656;23.382;2022-12-29T06:45:13;95833.06;;;6.85;63.37
68179;BME280;54998;42.656;23.382;2022-12-29T06:47:38;95832.03;;;6.46;63.23
68179;BME280;54998;42.656;23.382;2022-12-29T06:50:04;95827.88;;;6.87;62.48
68179;BME280;54998;42.656;23.382;2022-12-29T06:52:30;95826.88;;;6.17;63.26
68179;BME280;54998;42.656;23.382;2022-12-29T06:54:55;95835.88;;;6.09;64.02
68179;BME280;54998;42.656;23.382;2022-12-29T06:57:21;95842.78;;;5.76;65.13
68179;BME280;54998;42.656;23.382;2022-12-29T06:59:46;95837.81;;;5.13;66.97
68179;BME280;54998;42.656;23.382;2022-12-29T07:02:12;95837.03;;;5.27;67.13
68179;BME280;54998;42.656;23.382;2022-12-29T07:04:39;95839.50;;;5.28;67.16
68179;BME280;54998;42.656;23.382;2022-12-29T07:07:05;95839.09;;;5.20;67.01
68179;BME280;54998;42.656;23.382;2022-12-29T07:09:30;95843.84;;;5.58;67.61
68179;BME280;54998;42.656;23.382;2022-12-29T07:11:56;95844.06;;;6.00;65.02
68179;BME280;54998;42.656;23.382;2022-12-29T07:14:21;95833.03;;;6.58;63.86
68179;BME280;54998;42.656;23.382;2022-12-29T07:16:46;95835.53;;;7.95;60.47
68179;BME280;54998;42.656;23.382;2022-12-29T07:19:12;95835.63;;;9.33;54.61
68179;BME280;54998;42.656;23.382;2022-12-29T07:21:37;95834.78;;;10.27;53.03
68179;BME280;54998;42.656;23.382;2022-12-29T07:24:02;95831.16;;;11.31;49.19
68179;BME280;54998;42.656;23.382;2022-12-29T07:26:28;95830.13;;;11.99;48.09
68179;BME280;54998;42.656;23.382;2022-12-29T07:28:53;95829.69;;;12.97;45.97
68179;BME280;54998;42.656;23.382;2022-12-29T07:31:21;95821.16;;;13.66;42.44
68179;BME280;54998;42.656;23.382;2022-12-29T07:33:47;95825.13;;;14.47;40.60
68179;BME280;54998;42.656;23.382;2022-12-29T07:36:13;95825.75;;;15.06;39.64
68179;BME280;54998;42.656;23.382;2022-12-29T07:38:40;95837.59;;;15.26;38.73
68179;BME280;54998;42.656;23.382;2022-12-29T07:41:06;95837.72;;;14.79;39.53
68179;BME280;54998;42.656;23.382;2022-12-29T07:43:31;95832.41;;;15.54;37.66
68179;BME280;54998;42.656;23.382;2022-12-29T07:45:57;95830.78;;;15.53;36.94
68179;BME280;54998;42.656;23.382;2022-12-29T07:48:22;95833.19;;;14.81;38.46
68179;BME280;54998;42.656;23.382;2022-12-29T07:50:48;95830.16;;;16.31;36.53
68179;BME280;54998;42.656;23.382;2022-12-29T07:53:14;95827.53;;;16.22;35.70
68179;BME280;54998;42.656;23.382;2022-12-29T07:55:40;95837.75;;;15.70;37.02
68179;BME280;54998;42.656;23.382;2022-12-29T07:58:06;95843.84;;;15.79;37.07
68179;BME280;54998;42.656;23.382;2022-12-29T08:00:31;95829.72;;;16.88;34.39
68179;BME280;54998;42.656;23.382;2022-12-29T08:02:56;95837.41;;;16.01;36.16
68179;BME280;54998;42.656;23.382;2022-12-29T08:05:22;95840.00;;;14.15;39.96
68179;BME280;54998;42.656;23.382;2022-12-29T08:07:47;95838.06;;;16.03;36.67
68179;BME280;54998;42.656;23.382;2022-12-29T08:10:13;95840.31;;;17.02;34.58
68179;BME280;54998;42.656;23.382;2022-12-29T08:12:40;95841.41;;;16.39;36.20
68179;BME280;54998;42.656;23.382;2022-12-29T08:15:07;95845.00;;;16.99;34.59
68179;BME280;54998;42.656;23.382;2022-12-29T08:17:32;95842.06;;;15.34;37.02
68179;BME280;54998;42.656;23.382;2022-12-29T08:19:58;95839.63;;;15.05;38.14
68179;BME280;54998;42.656;23.382;2022-12-29T08:22:23;95843.66;;;16.16;36.22
68179;BME280;54998;42.656;23.382;2022-12-29T08:24:49;95833.09;;;14.06;39.39
68179;BME280;54998;42.656;23.382;2022-12-29T08:27:15;95844.75;;;13.52;41.43
68179;BME280;54998;42.656;23.382;2022-12-29T08:29:40;95837.13;;;15.13;38.46
68179;BME280;54998;42.656;23.382;2022-12-29T08:32:06;95834.88;;;15.73;36.72
68179;BME280;54998;42.656;23.382;2022-12-29T08:34:32;95834.31;;;16.76;34.89
68179;BME280;54998;42.656;23.382;2022-12-29T08:36:57;95828.41;;;17.34;33.70
68179;BME280;54998;42.656;23.382;2022-12-29T08:39:23;95836.50;;;13.58;39.79
68179;BME280;54998;42.656;23.382;2022-12-29T08:41:48;95831.75;;;15.24;37.82
68179;BME280;54998;42.656;23.382;2022-12-29T08:44:13;95828.44;;;15.77;36.52
68179;BME280;54998;42.656;23.382;2022-12-29T08:46:39;95825.88;;;16.21;36.01
68179;BME280;54998;42.656;23.382;2022-12-29T08:49:04;95819.88;;;17.50;33.57
68179;BME280;54998;42.656;23.382;2022-12-29T08:51:30;95816.28;;;17.51;33.55
68179;BME280;54998;42.656;23.382;2022-12-29T08:53:55;95818.72;;;16.94;33.47
68179;BME280;54998;42.656;23.382;2022-12-29T08:56:20;95827.53;;;16.22;35.42
68179;BME280;54998;42.656;23.382;2022-12-29T08:58:46;95823.81;;;18.36;32.01
68179;BME280;54998;42.656;23.382;2022-12-29T09:01:11;95819.59;;;18.43;31.12
68179;BME280;54998;42.656;23.382;2022-12-29T09:03:37;95821.84;;;18.30;31.62
68179;BME280;54998;42.656;23.382;2022-12-29T09:06:03;95817.88;;;18.92;30.51
68179;BME280;54998;42.656;23.382;2022-12-29T09:08:28;95815.94;;;19.17;29.68
68179;BME280;54998;42.656;23.382;2022-12-29T09:10:53;95805.59;;;19.94;28.50
68179;BME280;54998;42.656;23.382;2022-12-29T09:13:19;95803.00;;;16.95;33.28
68179;BME280;54998;42.656;23.382;2022-12-29T09:15:45;95798.66;;;18.37;31.72
68179;BME280;54998;42.656;23.382;2022-12-29T09:18:11;95795.47;;;20.14;29.45
68179;BME280;54998;42.656;23.382;2022-12-29T09:20:36;95800.31;;;20.02;29.12
68179;BME280;54998;42.656;23.382;2022-12-29T09:23:02;95788.91;;;21.01;28.04
68179;BME280;54998;42.656;23.382;2022-12-29T09:25:28;95800.75;;;19.60;29.25
68179;BME280;54998;42.656;23.382;2022-12-29T09:27:54;95795.97;;;20.33;28.56
68179;BME280;54998;42.656;23.382;2022-12-29T09:30:21;95805.13;;;19.90;28.25
68179;BME280;54998;42.656;23.382;2022-12-29T09:32:48;95794.97;;;18.87;30.31
68179;BME280;54998;42.656;23.382;2022-12-29T09:35:14;95792.44;;;18.54;30.62
68179;BME280;54998;42.656;23.382;2022-12-29T09:37:40;95790.72;;;19.80;28.92
68179;BME280;54998;42.656;23.382;2022-12-29T09:40:06;95788.00;;;18.79;29.95
68179;BME280;54998;42.656;23.382;2022-12-29T09:43:38;95795.63;;;17.17;32.90
68179;BME280;54998;42.656;23.382;2022-12-29T09:45:41;95778.13;;;16.76;33.36
68179;BME280;54998;42.656;23.382;2022-12-29T09:48:27;95784.69;;;16.97;33.53
68179;BME280;54998;42.656;23.382;2022-12-29T09:51:02;95777.66;;;18.46;31.28
68179;BME280;54998;42.656;23.382;2022-12-29T09:53:36;95781.25;;;18.45;31.16
68179;BME280;54998;42.656;23.382;2022-12-29T09:56:04;95771.72;;;19.17;30.25
68179;BME280;54998;42.656;23.382;2022-12-29T09:58:36;95770.00;;;18.61;30.60
68179;BME280;54998;42.656;23.382;2022-12-29T10:01:12;95767.47;;;18.84;30.56
68179;BME280;54998;42.656;23.382;2022-12-29T10:03:51;95773.31;;;17.57;32.50
68179;BME280;54998;42.656;23.382;2022-12-29T10:09:19;95765.72;;;18.68;30.71
68179;BME280;54998;42.656;23.382;2022-12-29T10:11:54;95756.81;;;17.99;32.02
68179;BME280;54998;42.656;23.382;2022-12-29T10:14:28;95751.69;;;16.73;33.97
68179;BME280;54998;42.656;23.382;2022-12-29T10:25:31;95742.25;;;16.63;34.77
68179;BME280;54998;42.656;23.382;2022-12-29T10:28:01;95747.75;;;16.60;34.30
68179;BME280;54998;42.656;23.382;2022-12-29T10:30:28;95749.91;;;15.33;36.81
68179;BME280;54998;42.656;23.382;2022-12-29T10:32:55;95740.50;;;15.68;36.48
68179;BME280;54998;42.656;23.382;2022-12-29T10:35:24;95746.06;;;15.19;37.59
68179;BME280;54998;42.656;23.382;2022-12-29T10:38:12;95736.63;;;16.34;35.53
68179;BME280;54998;42.656;23.382;2022-12-29T10:43:27;95741.28;;;15.78;36.00
68179;BME280;54998;42.656;23.382;2022-12-29T10:46:05;95727.25;;;15.27;37.32
68179;BME280;54998;42.656;23.382;2022-12-29T10:48:33;95724.41;;;16.26;36.17
68179;BME280;54998;42.656;23.382;2022-12-29T10:51:01;95719.81;;;16.80;34.60
68179;BME280;54998;42.656;23.382;2022-12-29T10:53:42;95726.09;;;14.38;39.64
68179;BME280;54998;42.656;23.382;2022-12-29T10:59:06;95714.16;;;16.42;35.47
68179;BME280;54998;42.656;23.382;2022-12-29T11:01:42;95707.88;;;17.04;34.83
68179;BME280;54998;42.656;23.382;2022-12-29T11:04:22;95707.34;;;18.48;32.10
68179;BME280;54998;42.656;23.382;2022-12-29T11:06:53;95699.03;;;17.72;33.28
68179;BME280;54998;42.656;23.382;2022-12-29T11:09:24;95690.63;;;16.78;34.13
68179;BME280;54998;42.656;23.382;2022-12-29T11:11:52;95685.00;;;16.83;35.16
68179;BME280;54998;42.656;23.382;2022-12-29T11:14:19;95688.47;;;18.06;32.81
68179;BME280;54998;42.656;23.382;2022-12-29T11:17:00;95692.69;;;17.99;32.81
68179;BME280;54998;42.656;23.382;2022-12-29T11:19:29;95685.50;;;18.26;31.98
68179;BME280;54998;42.656;23.382;2022-12-29T11:22:13;95681.81;;;18.91;31.36
68179;BME280;54998;42.656;23.382;2022-12-29T11:24:46;95673.81;;;19.62;30.23
68179;BME280;54998;42.656;23.382;2022-12-29T11:27:23;95678.09;;;15.89;35.62
68179;BME280;54998;42.656;23.382;2022-12-29T11:29:50;95677.03;;;16.76;35.15
68179;BME280;54998;42.656;23.382;2022-12-29T11:32:25;95676.63;;;17.63;33.09
68179;BME280;54998;42.656;23.382;2022-12-29T11:34:51;95676.94;;;16.09;36.30
68179;BME280;54998;42.656;23.382;2022-12-29T11:37:18;95675.97;;;15.40;37.46
68179;BME280;54998;42.656;23.382;2022-12-29T11:39:53;95673.31;;;16.02;36.19
68179;BME280;54998;42.656;23.382;2022-12-29T11:42:29;95671.75;;;15.65;36.90
68179;BME280;54998;42.656;23.382;2022-12-29T11:45:06;95670.06;;;15.30;37.71
68179;BME280;54998;42.656;23.382;2022-12-29T11:47:32;95657.06;;;16.69;35.70
68179;BME280;54998;42.656;23.382;2022-12-29T11:50:05;95661.69;;;16.83;34.89
68179;BME280;54998;42.656;23.382;2022-12-29T11:52:35;95660.75;;;17.58;33.57
68179;BME280;54998;42.656;23.382;2022-12-29T11:55:05;95659.94;;;16.15;35.74
68179;BME280;54998;42.656;23.382;2022-12-29T11:57:41;95662.03;;;17.13;35.02
68179;BME280;54998;42.656;23.382;2022-12-29T12:00:27;95657.66;;;16.97;34.76
68179;BME280;54998;42.656;23.382;2022-12-29T12:03:14;95659.50;;;15.23;37.84
68179;BME280;54998;42.656;23.382;2022-12-29T12:05:57;95667.88;;;15.87;36.85
68179;BME280;54998;42.656;23.382;2022-12-29T12:08:37;95667.44;;;14.76;39.15
68179;BME280;54998;42.656;23.382;2022-12-29T12:14:30;95651.94;;;15.30;38.17
68179;BME280;54998;42.656;23.382;2022-12-29T12:16:35;95652.84;;;15.65;37.37
68179;BME280;54998;42.656;23.382;2022-12-29T12:19:25;95652.19;;;14.55;39.58
68179;BME280;54998;42.656;23.382;2022-12-29T12:22:11;95662.47;;;13.62;41.27
68179;BME280;54998;42.656;23.382;2022-12-29T12:27:51;95646.69;;;12.39;44.57
68179;BME280;54998;42.656;23.382;2022-12-29T12:30:21;95650.31;;;11.54;46.57
68179;BME280;54998;42.656;23.382;2022-12-29T12:41:12;95640.22;;;10.99;49.16
68179;BME280;54998;42.656;23.382;2022-12-29T12:43:51;95635.41;;;10.84;49.44
68179;BME280;54998;42.656;23.382;2022-12-29T12:51:36;95638.31;;;10.80;49.84
68179;BME280;54998;42.656;23.382;2022-12-29T12:54:20;95642.19;;;10.74;49.98
68179;BME280;54998;42.656;23.382;2022-12-29T13:00:08;95637.03;;;10.19;51.95
68179;BME280;54998;42.656;23.382;2022-12-29T13:06:02;95643.78;;;10.43;51.32
68179;BME280;54998;42.656;23.382;2022-12-29T13:09:10;95647.16;;;10.43;51.11
68179;BME280;54998;42.656;23.382;2022-12-29T13:12:10;95638.56;;;10.33;51.41
68179;BME280;54998;42.656;23.382;2022-12-29T13:17:35;95632.34;;;9.45;54.04
68179;BME280;54998;42.656;23.382;2022-12-29T13:23:16;95643.88;;;9.62;54.11
68179;BME280;54998;42.656;23.382;2022-12-29T13:25:51;95656.69;;;9.62;54.29
68179;BME280;54998;42.656;23.382;2022-12-29T13:35:17;95647.25;;;9.52;54.15
68179;BME280;54998;42.656;23.382;2022-12-29T13:37:26;95643.19;;;9.60;54.08
68179;BME280;54998;42.656;23.382;2022-12-29T13:39:59;95643.44;;;9.69;53.98
68179;BME280;54998;42.656;23.382;2022-12-29T13:42:26;95650.31;;;9.57;54.13
68179;BME280;54998;42.656;23.382;2022-12-29T13:45:06;95646.44;;;9.62;54.10
68179;BME280;54998;42.656;23.382;2022-12-29T13:47:40;95644.84;;;9.61;54.37
68179;BME280;54998;42.656;23.382;2022-12-29T13:50:21;95652.97;;;9.66;54.05
68179;BME280;54998;42.656;23.382;2022-12-29T13:53:47;95648.47;;;9.81;53.79
68179;BME280;54998;42.656;23.382;2022-12-29T13:55:55;95649.03;;;9.96;53.58
68179;BME280;54998;42.656;23.382;2022-12-29T13:58:48;95649.97;;;9.95;53.38
68179;BME280;54998;42.656;23.382;2022-12-29T14:01:43;95647.06;;;10.00;53.21
68179;BME280;54998;42.656;23.382;2022-12-29T14:04:11;95645.75;;;10.17;52.88
68179;BME280;54998;42.656;23.382;2022-12-29T14:06:37;95639.38;;;10.11;53.04
68179;BME280;54998;42.656;23.382;2022-12-29T14:09:24;95653.94;;;10.11;52.98
68179;BME280;54998;42.656;23.382;2022-12-29T14:11:51;95650.16;;;9.58;54.27
68179;BME280;54998;42.656;23.382;2022-12-29T14:14:28;95658.53;;;9.49;54.77
68179;BME280;54998;42.656;23.382;2022-12-29T14:17:08;95657.75;;;9.71;54.27
68179;BME280;54998;42.656;23.382;2022-12-29T14:19:40;95656.50;;;9.77;54.29
68179;BME280;54998;42.656;23.382;2022-12-29T14:22:07;95657.53;;;9.74;54.02
68179;BME280;54998;42.656;23.382;2022-12-29T14:29:48;95670.66;;;9.47;55.10
68179;BME280;54998;42.656;23.382;2022-12-29T14:34:47;95666.44;;;8.99;56.31
68179;BME280;54998;42.656;23.382;2022-12-29T14:40:24;95671.38;;;8.78;57.39
68179;BME280;54998;42.656;23.382;2022-12-29T14:42:53;95678.47;;;8.86;57.29
68179;BME280;54998;42.656;23.382;2022-12-29T14:47:47;95679.09;;;8.90;57.13
68179;BME280;54998;42.656;23.382;2022-12-29T14:50:17;95673.69;;;8.81;57.36
68179;BME280;54998;42.656;23.382;2022-12-29T14:57:52;95682.28;;;8.56;58.49
68179;BME280;54998;42.656;23.382;2022-12-29T15:00:29;95676.28;;;8.45;58.64
68179;BME280;54998;42.656;23.382;2022-12-29T15:03:17;95682.44;;;8.29;59.34
68179;BME280;54998;42.656;23.382;2022-12-29T15:05:49;95685.00;;;8.16;60.05
68179;BME280;54998;42.656;23.382;2022-12-29T15:08:19;95675.84;;;7.88;61.06
68179;BME280;54998;42.656;23.382;2022-12-29T15:10:58;95688.22;;;7.81;61.71
68179;BME280;54998;42.656;23.382;2022-12-29T15:13:36;95679.13;;;7.77;61.87